createdAt,value
2019-01-03T00:02:06.648Z,5.10
2019-01-03T00:04:54.006Z,5.10
2019-01-03T00:11:05.271Z,5.20
2019-01-03T00:13:52.137Z,5.20
2019-01-03T00:16:56.065Z,5.20
2019-01-03T00:19:42.822Z,5.20
2019-01-03T00:22:33.801Z,5.20
2019-01-03T00:25:21.193Z,5.20
2019-01-03T00:28:12.220Z,5.20
2019-01-03T00:30:59.161Z,5.20
2019-01-03T00:33:48.813Z,5.20
2019-01-03T00:36:46.028Z,5.20
2019-01-03T00:39:37.092Z,5.20
2019-01-03T00:42:31.457Z,5.20
2019-01-03T00:45:19.691Z,5.10
2019-01-03T00:48:07.871Z,5.10
2019-01-03T00:50:58.870Z,5.10
2019-01-03T00:53:52.579Z,5.00
2019-01-03T00:56:41.204Z,5.00
2019-01-03T00:59:41.691Z,5.10
2019-01-03T01:02:32.801Z,5.00
2019-01-03T01:05:30.208Z,5.00
2019-01-03T01:08:27.387Z,4.90
2019-01-03T01:11:06.807Z,4.80
2019-01-03T01:14:14.702Z,4.80
2019-01-03T01:17:14.213Z,4.80
2019-01-03T01:20:14.423Z,4.90
2019-01-03T01:23:15.604Z,4.80
2019-01-03T01:26:07.467Z,4.90
2019-01-03T01:28:58.452Z,4.80
2019-01-03T01:32:01.804Z,4.80
2019-01-03T01:35:00.734Z,4.80
2019-01-03T01:37:47.959Z,4.80
2019-01-03T01:40:45.220Z,4.80
2019-01-03T01:43:32.475Z,4.90
2019-01-03T01:46:23.700Z,4.90
2019-01-03T01:49:21.072Z,5.00
2019-01-03T01:52:11.552Z,5.00
2019-01-03T01:54:58.748Z,5.00
2019-01-03T01:58:05.344Z,4.90
2019-01-03T02:00:51.032Z,4.90
2019-01-03T02:03:45.702Z,4.90
2019-01-03T02:06:36.965Z,4.90
2019-01-03T02:09:25.714Z,4.90
2019-01-03T02:12:15.533Z,4.90
2019-01-03T02:14:58.591Z,4.80
2019-01-03T02:17:53.220Z,4.80
2019-01-03T02:20:59.658Z,4.80
2019-01-03T02:24:06.139Z,4.80
2019-01-03T02:26:57.468Z,4.80
2019-01-03T02:29:44.408Z,4.70
2019-01-03T02:32:31.641Z,4.70
2019-01-03T02:35:18.665Z,4.70
2019-01-03T02:38:05.492Z,4.60
2019-01-03T02:40:53.729Z,4.60
2019-01-03T02:43:41.027Z,4.60
2019-01-03T02:46:22.973Z,4.60
2019-01-03T02:49:11.222Z,4.60
2019-01-03T02:51:53.681Z,4.60
2019-01-03T02:54:57.971Z,4.60
2019-01-03T02:57:55.432Z,4.50
2019-01-03T03:00:46.444Z,4.60
2019-01-03T03:03:37.535Z,4.60
2019-01-03T03:06:41.777Z,4.70
2019-01-03T03:09:28.874Z,4.70
2019-01-03T03:12:15.859Z,4.70
2019-01-03T03:14:59.497Z,4.60
2019-01-03T03:17:43.184Z,4.60
2019-01-03T03:20:34.629Z,4.50
2019-01-03T03:23:25.884Z,4.50
2019-01-03T03:26:12.985Z,4.50
2019-01-03T03:29:07.703Z,4.50
2019-01-03T03:31:54.778Z,4.50
2019-01-03T03:34:42.987Z,4.40
2019-01-03T03:37:38.565Z,4.40
2019-01-03T03:40:36.354Z,4.40
2019-01-03T03:43:36.615Z,4.40
2019-01-03T03:46:28.769Z,4.40
2019-01-03T03:49:32.021Z,4.40
2019-01-03T03:52:28.935Z,4.50
2019-01-03T03:55:17.617Z,4.40
2019-01-03T03:58:11.843Z,4.40
2019-01-03T04:00:58.905Z,4.30
2019-01-03T04:03:56.097Z,4.20
2019-01-03T04:06:59.730Z,4.20
2019-01-03T04:09:53.533Z,4.00
2019-01-03T04:12:44.604Z,3.90
2019-01-03T04:15:31.710Z,3.80
2019-01-03T04:18:28.938Z,3.80
2019-01-03T04:21:25.560Z,3.80
2019-01-03T04:24:13.828Z,3.90
2019-01-03T04:27:11.318Z,3.90
2019-01-03T04:29:59.520Z,4.00
2019-01-03T04:32:59.624Z,4.00
2019-01-03T04:36:03.134Z,4.00
2019-01-03T04:38:54.400Z,4.10
2019-01-03T04:41:42.608Z,4.20
2019-01-03T04:44:35.750Z,4.20
2019-01-03T04:47:27.225Z,4.20
2019-01-03T04:50:18.251Z,4.40
2019-01-03T04:53:09.318Z,4.40
2019-01-03T04:55:56.306Z,4.40
2019-01-03T04:58:43.379Z,4.40
2019-01-03T05:02:22.316Z,4.30
2019-01-03T05:05:07.675Z,4.10
2019-01-03T05:07:57.480Z,4.10
2019-01-03T05:11:04.372Z,4.00
2019-01-03T05:13:51.587Z,3.90
2019-01-03T05:16:38.748Z,3.80
2019-01-03T05:19:25.954Z,3.80
2019-01-03T05:22:12.841Z,3.80
2019-01-03T05:25:19.485Z,3.70
2019-01-03T05:28:07.705Z,3.70
2019-01-03T05:31:05.514Z,3.70
2019-01-03T05:33:53.735Z,3.60
2019-01-03T05:36:45.365Z,3.60
2019-01-03T05:39:32.687Z,3.60
2019-01-03T05:42:24.224Z,3.40
2019-01-03T05:45:11.118Z,3.30
2019-01-03T05:47:58.223Z,3.10
2019-01-03T05:50:55.324Z,3.00
2019-01-03T05:53:49.675Z,3.00
2019-01-03T05:56:33.258Z,3.00
2019-01-03T05:59:20.440Z,3.00
2019-01-03T06:02:07.624Z,3.10
2019-01-03T06:04:54.783Z,3.10
2019-01-03T06:07:41.963Z,3.10
2019-01-03T06:10:28.944Z,3.20
2019-01-03T06:13:16.071Z,3.30
2019-01-03T06:16:03.100Z,3.40
2019-01-03T06:18:57.654Z,3.40
2019-01-03T06:21:52.675Z,3.40
2019-01-03T06:24:43.315Z,3.50
2019-01-03T06:27:30.229Z,3.50
2019-01-03T06:30:17.296Z,3.60
2019-01-03T06:33:05.821Z,3.60
2019-01-03T06:35:56.861Z,3.60
2019-01-03T06:38:47.914Z,3.60
2019-01-03T06:41:31.550Z,3.50
2019-01-03T06:44:18.714Z,3.40
2019-01-03T06:47:12.962Z,3.40
2019-01-03T07:01:27.946Z,3.40
2019-01-03T07:04:16.121Z,3.50
2019-01-03T07:07:04.346Z,3.50
2019-01-03T07:09:52.523Z,3.50
2019-01-03T07:12:41.237Z,3.50
2019-01-03T07:15:25.326Z,3.40
2019-01-03T07:18:14.034Z,3.30
2019-01-03T07:21:08.587Z,3.20
2019-01-03T07:23:55.580Z,3.30
2019-01-03T07:26:47.052Z,3.40
2019-01-03T07:29:35.867Z,3.40
2019-01-03T07:32:22.830Z,3.40
2019-01-03T07:35:20.157Z,3.50
2019-01-03T07:38:08.355Z,3.50
2019-01-03T07:41:15.012Z,3.50
2019-01-03T07:44:02.723Z,3.60
2019-01-03T07:46:56.539Z,3.60
2019-01-03T07:49:43.420Z,3.60
2019-01-03T07:52:31.967Z,3.60
2019-01-03T07:55:26.041Z,3.60
2019-01-03T07:58:14.236Z,3.60
2019-01-03T08:01:00.968Z,3.50
2019-01-03T08:03:52.235Z,3.50
2019-01-03T08:06:36.907Z,3.30
2019-01-03T08:09:26.647Z,3.20
2019-01-03T08:12:30.283Z,3.10
2019-01-03T08:15:27.350Z,3.00
2019-01-03T08:18:15.610Z,2.90
2019-01-03T08:21:03.845Z,2.80
2019-01-03T08:23:52.067Z,2.70
2019-01-03T08:26:52.700Z,2.60
2019-01-03T08:29:39.761Z,2.60
2019-01-03T08:32:27.994Z,2.50
2019-01-03T08:35:13.482Z,2.50
2019-01-03T08:38:00.486Z,2.50
2019-01-03T08:40:47.426Z,2.40
2019-01-03T08:46:37.430Z,2.60
2019-01-03T08:49:31.337Z,2.70
2019-01-03T08:52:04.768Z,2.90
2019-01-03T08:54:59.585Z,3.20
2019-01-03T08:57:47.812Z,3.50
2019-01-03T09:03:17.274Z,4.00
2019-01-03T09:09:25.628Z,4.20
2019-01-03T09:12:17.344Z,4.30
2019-01-03T09:15:20.773Z,4.30
2019-01-03T09:18:09.721Z,4.30
2019-01-03T09:21:17.186Z,4.40
2019-01-03T09:24:18.127Z,4.40
2019-01-03T09:27:24.179Z,4.40
2019-01-03T09:30:24.508Z,4.40
2019-01-03T09:36:16.105Z,4.60
2019-01-03T09:39:13.270Z,4.70
2019-01-03T09:42:08.504Z,4.80
2019-01-03T09:44:47.085Z,5.00
2019-01-03T09:47:16.350Z,5.20
2019-01-03T09:49:45.772Z,5.40
2019-01-03T09:52:15.080Z,5.40
2019-01-03T09:55:03.630Z,5.40
2019-01-03T09:57:32.909Z,5.40
2019-01-03T10:00:03.584Z,5.50
2019-01-03T10:02:32.780Z,5.40
2019-01-03T10:05:02.334Z,5.60
2019-01-03T10:07:31.927Z,5.60
2019-01-03T10:10:01.123Z,5.60
2019-01-03T10:12:30.374Z,5.60
2019-01-03T10:14:59.548Z,5.70
2019-01-03T10:17:29.171Z,5.70
2019-01-03T10:19:58.356Z,5.80
2019-01-03T10:22:27.884Z,5.80
2019-01-03T10:24:57.099Z,5.80
2019-01-03T10:27:26.718Z,5.80
2019-01-03T10:29:55.973Z,5.80
2019-01-03T10:32:25.233Z,5.80
2019-01-03T10:34:54.531Z,5.70
2019-01-03T10:37:23.753Z,5.70
2019-01-03T10:39:53.083Z,5.70
2019-01-03T10:42:22.561Z,5.80
2019-01-03T10:44:51.797Z,5.80
2019-01-03T10:47:21.007Z,5.90
2019-01-03T10:49:51.020Z,6.00
2019-01-03T10:52:20.149Z,6.10
2019-01-03T10:55:08.398Z,6.20
2019-01-03T10:57:37.567Z,6.30
2019-01-03T11:00:07.521Z,6.30
2019-01-03T11:02:36.898Z,6.30
2019-01-03T11:05:06.271Z,6.10
2019-01-03T11:07:54.863Z,6.00
2019-01-03T11:10:24.136Z,5.80
2019-01-03T11:12:53.441Z,5.80
2019-01-03T11:15:23.356Z,5.80
2019-01-03T11:17:52.948Z,5.90
2019-01-03T11:20:22.139Z,6.10
2019-01-03T11:22:52.876Z,6.30
2019-01-03T11:25:22.134Z,6.50
2019-01-03T11:27:51.361Z,6.60
2019-01-03T11:30:21.012Z,6.80
2019-01-03T11:32:50.166Z,7.00
2019-01-03T11:35:19.408Z,7.10
2019-01-03T11:37:48.686Z,7.40
2019-01-03T11:40:18.356Z,7.40
2019-01-03T11:42:47.846Z,7.30
2019-01-03T11:45:17.104Z,7.50
2019-01-03T11:47:46.462Z,7.50
2019-01-03T11:50:15.608Z,7.60
2019-01-03T11:53:03.882Z,7.70
2019-01-03T11:55:33.028Z,7.70
2019-01-03T11:58:02.532Z,7.90
2019-01-03T12:00:32.084Z,7.70
2019-01-03T12:03:01.667Z,7.50
2019-01-03T12:05:30.811Z,7.30
2019-01-03T12:08:00.370Z,7.10
2019-01-03T12:10:29.623Z,7.00
2019-01-03T12:12:59.204Z,7.10
2019-01-03T12:15:28.395Z,7.10
2019-01-03T12:17:57.580Z,7.20
2019-01-03T12:20:26.766Z,7.10
2019-01-03T12:22:56.266Z,7.10
2019-01-03T12:25:25.493Z,7.00
2019-01-03T12:27:54.647Z,7.00
2019-01-03T12:30:24.299Z,6.90
2019-01-03T12:32:53.460Z,6.80
2019-01-03T12:35:22.621Z,6.80
2019-01-03T12:37:51.983Z,6.80
2019-01-03T12:40:21.679Z,6.80
2019-01-03T12:42:51.202Z,6.80
2019-01-03T12:45:20.381Z,6.80
2019-01-03T12:47:49.575Z,6.80
2019-01-03T12:50:18.806Z,6.70
2019-01-03T12:52:48.065Z,6.70
2019-01-03T12:55:17.323Z,6.80
2019-01-03T12:57:46.546Z,6.60
2019-01-03T13:00:15.945Z,6.60
2019-01-03T13:02:45.256Z,6.60
2019-01-03T13:05:14.389Z,6.50
2019-01-03T13:07:43.947Z,6.50
2019-01-03T13:10:13.176Z,6.40
2019-01-03T13:12:42.398Z,6.20
2019-01-03T13:15:11.723Z,6.10
2019-01-03T13:17:41.349Z,6.00
2019-01-03T13:20:10.874Z,6.00
2019-01-03T13:22:40.061Z,6.00
2019-01-03T13:25:09.199Z,6.20
2019-01-03T13:27:38.673Z,6.50
2019-01-03T13:30:09.986Z,6.70
2019-01-03T13:32:39.241Z,6.70
2019-01-03T13:35:08.379Z,7.00
2019-01-03T13:37:37.622Z,7.00
2019-01-03T13:40:07.887Z,7.10
2019-01-03T13:42:37.035Z,7.30
2019-01-03T13:45:06.791Z,7.20
2019-01-03T13:47:36.086Z,7.20
2019-01-03T13:50:06.476Z,7.10
2019-01-03T13:52:35.969Z,7.10
2019-01-03T13:55:06.348Z,7.20
2019-01-03T13:57:35.662Z,7.20
2019-01-03T14:00:05.754Z,7.20
2019-01-03T14:02:35.976Z,7.00
2019-01-03T14:05:05.632Z,6.80
2019-01-03T14:07:34.912Z,6.70
2019-01-03T14:10:04.755Z,6.50
2019-01-03T14:12:33.931Z,6.50
2019-01-03T14:15:03.199Z,6.40
2019-01-03T14:17:32.426Z,6.30
2019-01-03T14:20:01.629Z,6.30
2019-01-03T14:22:31.294Z,6.20
2019-01-03T14:25:00.448Z,6.10
2019-01-03T14:27:29.694Z,6.10
2019-01-03T14:30:00.000Z,6.20
2019-01-03T14:32:29.296Z,6.20
2019-01-03T14:34:59.006Z,6.30
2019-01-03T14:37:28.201Z,6.20
2019-01-03T14:39:57.385Z,6.20
2019-01-03T14:42:26.585Z,6.10
2019-01-03T14:44:56.176Z,6.00
2019-01-03T14:47:25.356Z,5.90
2019-01-03T14:49:54.852Z,5.90
2019-01-03T14:52:24.048Z,5.80
2019-01-03T14:54:53.403Z,5.80
2019-01-03T14:57:22.877Z,5.80
2019-01-03T14:59:52.052Z,5.80
2019-01-03T15:02:21.219Z,5.80
2019-01-03T15:04:50.445Z,5.70
2019-01-03T15:07:20.083Z,5.70
2019-01-03T15:09:49.245Z,5.60
2019-01-03T15:12:18.431Z,5.40
2019-01-03T15:14:47.733Z,5.40
2019-01-03T15:17:17.391Z,5.40
2019-01-03T15:19:46.975Z,5.40
2019-01-03T15:22:17.228Z,5.40
2019-01-03T15:24:46.758Z,5.50
2019-01-03T15:27:16.709Z,5.60
2019-01-03T15:29:46.176Z,5.60
2019-01-03T15:32:15.417Z,5.70
2019-01-03T15:34:44.670Z,5.70
2019-01-03T15:37:13.949Z,5.80
2019-01-03T15:39:43.233Z,5.80
2019-01-03T15:44:40.999Z,5.80
2019-01-03T15:47:10.260Z,5.70
2019-01-03T15:49:39.423Z,5.60
2019-01-03T15:52:08.611Z,5.40
2019-01-03T15:54:37.799Z,5.40
2019-01-03T15:57:07.132Z,5.10
2019-01-03T15:59:36.714Z,4.90
2019-01-03T16:02:06.314Z,4.90
2019-01-03T16:04:35.563Z,4.70
2019-01-03T16:07:04.794Z,4.50
2019-01-03T16:09:33.983Z,4.30
2019-01-03T16:12:22.325Z,4.10
2019-01-03T16:14:51.520Z,3.90
2019-01-03T16:17:21.022Z,3.70
2019-01-03T16:19:50.820Z,3.60
2019-01-03T16:22:20.335Z,3.60
2019-01-03T16:24:50.132Z,3.60
2019-01-03T16:27:19.506Z,3.60
2019-01-03T16:29:48.738Z,3.70
2019-01-03T16:32:17.921Z,3.90
2019-01-03T16:34:47.503Z,4.10
2019-01-03T16:37:17.125Z,4.20
2019-01-03T16:39:46.586Z,4.30
2019-01-03T16:42:19.424Z,4.40
2019-01-03T16:44:48.610Z,4.50
2019-01-03T16:47:17.843Z,4.50
2019-01-03T16:49:47.582Z,4.60
2019-01-03T16:52:16.736Z,4.60
2019-01-03T16:54:45.983Z,4.60
2019-01-03T16:57:15.653Z,4.70
2019-01-03T16:59:44.883Z,4.70
2019-01-03T17:02:14.327Z,4.80
2019-01-03T17:04:43.625Z,4.80
2019-01-03T17:07:12.792Z,4.80
2019-01-03T17:09:42.045Z,4.80
2019-01-03T17:12:11.705Z,4.80
2019-01-03T17:14:40.869Z,4.80
2019-01-03T17:17:10.055Z,4.70
2019-01-03T17:19:39.339Z,4.60
2019-01-03T17:22:08.999Z,4.50
2019-01-03T17:24:38.531Z,4.40
2019-01-03T17:27:27.058Z,4.20
2019-01-03T17:29:56.227Z,4.10
2019-01-03T17:32:25.399Z,4.00
2019-01-03T17:34:54.673Z,3.90
2019-01-03T17:37:23.935Z,3.90
2019-01-03T17:40:13.269Z,3.80
2019-01-03T17:42:44.021Z,3.70
2019-01-03T17:45:13.340Z,3.60
2019-01-03T17:47:42.991Z,3.50
2019-01-03T17:50:13.115Z,3.30
2019-01-03T17:52:42.333Z,3.30
2019-01-03T17:55:11.533Z,3.20
2019-01-03T17:57:40.784Z,3.20
2019-01-03T18:00:21.419Z,3.20
2019-01-03T18:02:51.768Z,3.10
2019-01-03T18:05:21.102Z,3.10
2019-01-03T18:07:50.768Z,3.10
2019-01-03T18:10:19.964Z,3.00
2019-01-03T18:12:49.140Z,2.80
2019-01-03T18:15:18.345Z,2.80
2019-01-03T18:17:47.490Z,2.70
2019-01-03T18:20:18.013Z,2.60
2019-01-03T18:23:07.690Z,2.50
2019-01-03T18:25:36.846Z,2.40
2019-01-03T18:28:05.981Z,2.40
2019-01-03T18:30:35.262Z,2.40
2019-01-03T18:33:04.550Z,2.30
2019-01-03T18:35:33.846Z,2.20
2019-01-03T18:38:07.140Z,2.10
2019-01-03T18:40:36.476Z,2.00
2019-01-03T18:43:05.672Z,2.00
2019-01-03T18:45:34.966Z,1.90
2019-01-03T18:48:04.232Z,1.90
2019-01-03T18:50:34.195Z,1.80
2019-01-03T18:53:03.959Z,1.80
2019-01-03T18:55:33.191Z,1.90
2019-01-03T18:58:02.479Z,1.80
2019-01-03T19:00:31.690Z,1.70
2019-01-03T19:03:00.979Z,1.60
2019-01-03T19:05:30.623Z,1.60
2019-01-03T19:07:59.808Z,1.50
2019-01-03T19:10:29.363Z,1.60
2019-01-03T19:12:58.531Z,1.60
2019-01-03T19:15:28.127Z,1.60
2019-01-03T19:17:57.675Z,1.60
2019-01-03T19:20:27.715Z,1.60
2019-01-03T19:22:57.002Z,1.70
2019-01-03T19:25:26.167Z,1.70
2019-01-03T19:27:55.798Z,1.70
2019-01-03T19:30:25.485Z,1.60
2019-01-03T19:32:54.795Z,1.50
2019-01-03T19:35:24.032Z,1.40
2019-01-03T19:37:53.389Z,1.40
2019-01-03T19:40:22.965Z,1.30
2019-01-03T19:42:52.157Z,1.30
2019-01-03T19:45:22.196Z,1.30
2019-01-03T19:47:51.477Z,1.40
2019-01-03T19:50:21.167Z,1.50
2019-01-03T19:52:50.798Z,1.50
2019-01-03T19:55:20.050Z,1.50
2019-01-03T19:57:49.583Z,1.50
2019-01-03T20:00:19.332Z,1.50
2019-01-03T20:02:48.581Z,1.40
2019-01-03T20:05:17.864Z,1.50
2019-01-03T20:07:48.152Z,1.50
2019-01-03T20:10:17.604Z,1.50
2019-01-03T20:12:46.787Z,1.50
2019-01-03T20:15:16.849Z,1.40
2019-01-03T20:17:46.487Z,1.30
2019-01-03T20:20:16.020Z,1.20
2019-01-03T20:22:45.269Z,1.10
2019-01-03T20:25:14.431Z,1.00
2019-01-03T20:27:44.054Z,1.00
2019-01-03T20:30:13.414Z,1.00
2019-01-03T20:32:42.647Z,1.00
2019-01-03T20:35:11.824Z,0.90
2019-01-03T20:37:41.026Z,0.90
2019-01-03T20:40:11.099Z,0.90
2019-01-03T20:42:40.558Z,0.90
2019-01-03T20:45:11.762Z,0.80
2019-01-03T20:47:41.049Z,0.80
2019-01-03T20:50:10.744Z,0.80
2019-01-03T20:52:40.340Z,0.80
2019-01-03T20:55:09.600Z,0.70
2019-01-03T20:57:39.127Z,0.60
2019-01-03T21:00:11.467Z,0.60
2019-01-03T21:02:40.628Z,0.60
2019-01-03T21:05:09.884Z,0.60
2019-01-03T21:07:39.144Z,0.60
2019-01-03T21:10:10.168Z,0.60
2019-01-03T21:12:39.404Z,0.50
2019-01-03T21:15:11.509Z,0.50
2019-01-03T21:17:40.844Z,0.60
2019-01-03T21:20:11.158Z,0.70
2019-01-03T21:22:40.858Z,0.90
2019-01-03T21:25:10.833Z,1.10
2019-01-03T21:27:40.578Z,1.20
2019-01-03T21:30:28.917Z,1.30
2019-01-03T21:32:58.042Z,1.40
2019-01-03T21:35:27.302Z,1.50
2019-01-03T21:37:56.485Z,1.60
2019-01-03T21:40:25.651Z,1.70
2019-01-03T21:43:15.322Z,1.70
2019-01-03T21:45:44.924Z,1.70
2019-01-03T21:48:14.291Z,1.80
2019-01-03T21:50:43.526Z,1.80
2019-01-03T21:53:12.827Z,1.90
2019-01-03T21:55:42.046Z,1.90
2019-01-03T21:58:17.573Z,2.00
2019-01-03T22:00:46.809Z,2.10
2019-01-03T22:03:15.949Z,2.20
2019-01-03T22:05:45.143Z,2.20
2019-01-03T22:08:14.331Z,2.20
2019-01-03T22:10:43.700Z,2.30
2019-01-03T22:13:13.651Z,2.30
2019-01-03T22:15:42.846Z,2.40
2019-01-03T22:18:12.075Z,2.50
2019-01-03T22:20:41.688Z,2.60
2019-01-03T22:23:11.251Z,2.70
2019-01-03T22:25:41.267Z,2.70
2019-01-03T22:28:16.579Z,2.70
2019-01-03T22:30:46.478Z,2.60
2019-01-03T22:33:16.010Z,2.60
2019-01-03T22:35:45.251Z,2.60
2019-01-03T22:38:14.617Z,2.60
2019-01-03T22:40:43.794Z,2.60
2019-01-03T22:43:13.409Z,2.70
2019-01-03T22:45:42.756Z,2.70
2019-01-03T22:48:12.018Z,2.70
2019-01-03T22:50:41.246Z,2.80
2019-01-03T22:53:10.594Z,2.80
2019-01-03T22:55:40.082Z,2.80
2019-01-03T22:58:13.128Z,2.70
2019-01-03T23:00:48.658Z,2.70
2019-01-03T23:03:17.864Z,2.60
2019-01-03T23:05:47.084Z,2.70
2019-01-03T23:08:18.145Z,2.70
2019-01-03T23:11:06.406Z,2.60
2019-01-03T23:13:36.700Z,2.40
2019-01-03T23:16:05.945Z,2.30
2019-01-03T23:18:35.158Z,2.10
2019-01-03T23:21:04.426Z,2.00
2019-01-03T23:23:52.972Z,1.90
2019-01-03T23:26:22.466Z,1.90
2019-01-03T23:28:51.616Z,1.90
2019-01-03T23:31:20.906Z,1.90
2019-01-03T23:33:50.137Z,2.20
2019-01-03T23:36:19.480Z,2.30
2019-01-03T23:38:49.016Z,2.40
2019-01-03T23:41:18.403Z,2.40
2019-01-03T23:43:47.589Z,2.50
2019-01-03T23:46:16.762Z,2.60
2019-01-03T23:48:45.974Z,2.70
2019-01-03T23:51:15.203Z,2.70
2019-01-03T23:54:03.536Z,2.70
2019-01-03T23:56:32.789Z,2.80
2019-01-03T23:59:02.339Z,2.80
